sensor_id;sensor_type;location;lat;lon;timestamp;temperature;humidity
9915;DHT22;4996;48.746;9.174;2022-10-28T00:02:06;16.50;99.90
9915;DHT22;4996;48.746;9.174;2022-10-28T00:04:31;16.60;99.90
9915;DHT22;4996;48.746;9.174;2022-10-28T00:06:57;16.50;99.90
9915;DHT22;4996;48.746;9.174;2022-10-28T00:09:22;16.60;99.90
9915;DHT22;4996;48.746;9.174;2022-10-28T00:11:48;16.60;99.90
9915;DHT22;4996;48.746;9.174;2022-10-28T00:14:13;16.40;99.90
9915;DHT22;4996;48.746;9.174;2022-10-28T00:16:39;16.50;99.90
9915;DHT22;4996;48.746;9.174;2022-10-28T00:19:06;16.50;99.90
9915;DHT22;4996;48.746;9.174;2022-10-28T00:21:34;16.60;99.90
9915;DHT22;4996;48.746;9.174;2022-10-28T00:24:00;16.50;99.90
9915;DHT22;4996;48.746;9.174;2022-10-28T00:29:06;16.40;99.90
9915;DHT22;4996;48.746;9.174;2022-10-28T00:31:33;16.40;99.90
9915;DHT22;4996;48.746;9.174;2022-10-28T00:34:10;16.40;99.90
9915;DHT22;4996;48.746;9.174;2022-10-28T00:36:38;16.40;99.90
9915;DHT22;4996;48.746;9.174;2022-10-28T00:39:12;16.30;99.90
9915;DHT22;4996;48.746;9.174;2022-10-28T00:41:40;16.20;99.90
9915;DHT22;4996;48.746;9.174;2022-10-28T00:47:14;16.20;99.90
9915;DHT22;4996;48.746;9.174;2022-10-28T00:49:41;16.20;99.90
9915;DHT22;4996;48.746;9.174;2022-10-28T00:52:12;16.20;99.90
9915;DHT22;4996;48.746;9.174;2022-10-28T00:54:41;16.10;99.90
9915;DHT22;4996;48.746;9.174;2022-10-28T00:57:13;16.00;99.90
9915;DHT22;4996;48.746;9.174;2022-10-28T00:59:44;16.00;99.90
9915;DHT22;4996;48.746;9.174;2022-10-28T01:02:10;16.00;99.90
9915;DHT22;4996;48.746;9.174;2022-10-28T01:04:36;16.10;99.90
9915;DHT22;4996;48.746;9.174;2022-10-28T01:07:01;16.00;99.90
9915;DHT22;4996;48.746;9.174;2022-10-28T01:09:27;16.00;99.90
9915;DHT22;4996;48.746;9.174;2022-10-28T01:15:04;15.90;99.90
9915;DHT22;4996;48.746;9.174;2022-10-28T01:17:55;15.80;99.90
9915;DHT22;4996;48.746;9.174;2022-10-28T01:23:34;15.90;99.90
9915;DHT22;4996;48.746;9.174;2022-10-28T01:31:49;15.70;99.90
9915;DHT22;4996;48.746;9.174;2022-10-28T01:34:37;15.70;99.90
9915;DHT22;4996;48.746;9.174;2022-10-28T01:37:11;15.70;99.90
9915;DHT22;4996;48.746;9.174;2022-10-28T01:40:21;15.70;99.90
9915;DHT22;4996;48.746;9.174;2022-10-28T01:42:47;15.70;99.90
9915;DHT22;4996;48.746;9.174;2022-10-28T01:50:49;15.70;99.90
9915;DHT22;4996;48.746;9.174;2022-10-28T01:53:23;15.70;99.90
9915;DHT22;4996;48.746;9.174;2022-10-28T01:55:52;15.60;99.90
9915;DHT22;4996;48.746;9.174;2022-10-28T01:58:24;15.60;99.90
9915;DHT22;4996;48.746;9.174;2022-10-28T02:00:51;15.50;99.90
9915;DHT22;4996;48.746;9.174;2022-10-28T02:03:17;15.50;99.90
9915;DHT22;4996;48.746;9.174;2022-10-28T02:05:48;15.50;99.90
9915;DHT22;4996;48.746;9.174;2022-10-28T02:11:02;15.50;99.90
9915;DHT22;4996;48.746;9.174;2022-10-28T02:13:54;15.60;99.90
9915;DHT22;4996;48.746;9.174;2022-10-28T02:22:20;15.40;99.90
9915;DHT22;4996;48.746;9.174;2022-10-28T02:25:15;15.40;99.90
9915;DHT22;4996;48.746;9.174;2022-10-28T02:30:20;15.40;99.90
9915;DHT22;4996;48.746;9.174;2022-10-28T02:32:52;15.50;99.90
9915;DHT22;4996;48.746;9.174;2022-10-28T02:35:29;15.50;99.90
9915;DHT22;4996;48.746;9.174;2022-10-28T02:37:57;15.50;99.90
9915;DHT22;4996;48.746;9.174;2022-10-28T02:40:25;15.50;99.90
9915;DHT22;4996;48.746;9.174;2022-10-28T02:42:57;15.50;99.90
9915;DHT22;4996;48.746;9.174;2022-10-28T02:45:27;15.50;99.90
9915;DHT22;4996;48.746;9.174;2022-10-28T02:47:56;15.50;99.90
9915;DHT22;4996;48.746;9.174;2022-10-28T02:50:33;15.50;99.90
9915;DHT22;4996;48.746;9.174;2022-10-28T02:53:01;15.50;99.90
9915;DHT22;4996;48.746;9.174;2022-10-28T02:55:33;15.60;99.90
9915;DHT22;4996;48.746;9.174;2022-10-28T02:58:00;15.60;99.90
9915;DHT22;4996;48.746;9.174;2022-10-28T03:00:25;15.50;99.90
9915;DHT22;4996;48.746;9.174;2022-10-28T03:02:51;15.50;99.90
9915;DHT22;4996;48.746;9.174;2022-10-28T03:05:17;15.50;99.90
9915;DHT22;4996;48.746;9.174;2022-10-28T03:07:43;15.50;99.90
9915;DHT22;4996;48.746;9.174;2022-10-28T03:10:08;15.50;99.90
9915;DHT22;4996;48.746;9.174;2022-10-28T03:12:34;15.50;99.90
9915;DHT22;4996;48.746;9.174;2022-10-28T03:15:00;15.50;99.90
9915;DHT22;4996;48.746;9.174;2022-10-28T03:17:27;15.50;99.90
9915;DHT22;4996;48.746;9.174;2022-10-28T03:19:53;15.50;99.90
9915;DHT22;4996;48.746;9.174;2022-10-28T03:22:18;15.50;99.90
9915;DHT22;4996;48.746;9.174;2022-10-28T03:24:44;15.50;99.90
9915;DHT22;4996;48.746;9.174;2022-10-28T03:27:09;15.50;99.90
9915;DHT22;4996;48.746;9.174;2022-10-28T03:29:35;15.60;99.90
9915;DHT22;4996;48.746;9.174;2022-10-28T03:32:00;15.60;99.90
9915;DHT22;4996;48.746;9.174;2022-10-28T03:34:26;15.70;99.90
9915;DHT22;4996;48.746;9.174;2022-10-28T03:36:51;15.70;99.90
9915;DHT22;4996;48.746;9.174;2022-10-28T03:39:17;15.60;99.90
9915;DHT22;4996;48.746;9.174;2022-10-28T03:41:42;15.70;99.90
9915;DHT22;4996;48.746;9.174;2022-10-28T03:44:08;15.70;99.90
9915;DHT22;4996;48.746;9.174;2022-10-28T03:46:33;15.70;99.90
9915;DHT22;4996;48.746;9.174;2022-10-28T03:48:59;15.70;99.90
9915;DHT22;4996;48.746;9.174;2022-10-28T03:51:24;15.80;99.90
9915;DHT22;4996;48.746;9.174;2022-10-28T03:53:50;15.80;99.90
9915;DHT22;4996;48.746;9.174;2022-10-28T03:56:15;15.90;99.90
9915;DHT22;4996;48.746;9.174;2022-10-28T03:58:41;15.90;99.90
9915;DHT22;4996;48.746;9.174;2022-10-28T04:01:06;15.90;99.90
9915;DHT22;4996;48.746;9.174;2022-10-28T04:03:32;15.90;99.90
9915;DHT22;4996;48.746;9.174;2022-10-28T04:05:57;16.00;99.90
9915;DHT22;4996;48.746;9.174;2022-10-28T04:08:23;16.00;99.90
9915;DHT22;4996;48.746;9.174;2022-10-28T04:10:49;16.10;99.90
9915;DHT22;4996;48.746;9.174;2022-10-28T04:13:15;16.10;99.90
9915;DHT22;4996;48.746;9.174;2022-10-28T04:15:41;16.20;99.90
9915;DHT22;4996;48.746;9.174;2022-10-28T04:18:07;16.20;99.90
9915;DHT22;4996;48.746;9.174;2022-10-28T04:20:33;16.30;99.90
9915;DHT22;4996;48.746;9.174;2022-10-28T04:22:58;16.30;99.90
9915;DHT22;4996;48.746;9.174;2022-10-28T04:25:25;16.30;99.90
9915;DHT22;4996;48.746;9.174;2022-10-28T04:27:50;16.30;99.90
9915;DHT22;4996;48.746;9.174;2022-10-28T04:30:16;16.30;99.90
9915;DHT22;4996;48.746;9.174;2022-10-28T04:32:42;16.30;99.90
9915;DHT22;4996;48.746;9.174;2022-10-28T04:35:08;16.40;99.90
9915;DHT22;4996;48.746;9.174;2022-10-28T04:37:35;16.50;99.90
9915;DHT22;4996;48.746;9.174;2022-10-28T04:40:00;16.50;99.90
9915;DHT22;4996;48.746;9.174;2022-10-28T04:42:26;16.50;99.90
9915;DHT22;4996;48.746;9.174;2022-10-28T04:44:52;16.40;99.90
9915;DHT22;4996;48.746;9.174;2022-10-28T04:47:17;16.40;99.90
9915;DHT22;4996;48.746;9.174;2022-10-28T04:49:43;16.50;99.90
9915;DHT22;4996;48.746;9.174;2022-10-28T04:52:09;16.50;99.90
9915;DHT22;4996;48.746;9.174;2022-10-28T04:54:34;16.50;99.90
9915;DHT22;4996;48.746;9.174;2022-10-28T04:57:00;16.40;99.90
9915;DHT22;4996;48.746;9.174;2022-10-28T04:59:25;16.50;99.90
9915;DHT22;4996;48.746;9.174;2022-10-28T05:01:51;16.50;99.90
9915;DHT22;4996;48.746;9.174;2022-10-28T05:04:16;16.50;99.90
9915;DHT22;4996;48.746;9.174;2022-10-28T05:06:42;16.50;99.90
9915;DHT22;4996;48.746;9.174;2022-10-28T05:09:07;16.40;99.90
9915;DHT22;4996;48.746;9.174;2022-10-28T05:11:33;16.40;99.90
9915;DHT22;4996;48.746;9.174;2022-10-28T05:13:59;16.40;99.90
9915;DHT22;4996;48.746;9.174;2022-10-28T05:16:24;16.50;99.90
9915;DHT22;4996;48.746;9.174;2022-10-28T05:18:50;16.50;99.90
9915;DHT22;4996;48.746;9.174;2022-10-28T05:21:15;16.50;99.90
9915;DHT22;4996;48.746;9.174;2022-10-28T05:23:41;16.40;99.90
9915;DHT22;4996;48.746;9.174;2022-10-28T05:26:06;16.40;99.90
9915;DHT22;4996;48.746;9.174;2022-10-28T05:28:32;16.40;99.90
9915;DHT22;4996;48.746;9.174;2022-10-28T05:30:58;16.40;99.90
9915;DHT22;4996;48.746;9.174;2022-10-28T05:33:23;16.30;99.90
9915;DHT22;4996;48.746;9.174;2022-10-28T05:35:49;16.20;99.90
9915;DHT22;4996;48.746;9.174;2022-10-28T05:38:14;16.20;99.90
9915;DHT22;4996;48.746;9.174;2022-10-28T05:40:40;16.10;99.90
9915;DHT22;4996;48.746;9.174;2022-10-28T05:43:05;16.00;99.90
9915;DHT22;4996;48.746;9.174;2022-10-28T05:45:33;15.90;99.90
9915;DHT22;4996;48.746;9.174;2022-10-28T05:47:59;15.90;99.90
9915;DHT22;4996;48.746;9.174;2022-10-28T05:50:24;15.90;99.90
9915;DHT22;4996;48.746;9.174;2022-10-28T05:52:52;15.80;99.90
9915;DHT22;4996;48.746;9.174;2022-10-28T05:55:19;15.80;99.90
9915;DHT22;4996;48.746;9.174;2022-10-28T05:57:49;15.80;99.90
9915;DHT22;4996;48.746;9.174;2022-10-28T06:00:17;15.80;99.90
9915;DHT22;4996;48.746;9.174;2022-10-28T06:02:42;15.80;99.90
9915;DHT22;4996;48.746;9.174;2022-10-28T06:05:09;15.70;99.90
9915;DHT22;4996;48.746;9.174;2022-10-28T06:07:35;15.70;99.90
9915;DHT22;4996;48.746;9.174;2022-10-28T06:10:02;15.70;99.90
9915;DHT22;4996;48.746;9.174;2022-10-28T06:12:28;15.70;99.90
9915;DHT22;4996;48.746;9.174;2022-10-28T06:14:53;15.70;99.90
9915;DHT22;4996;48.746;9.174;2022-10-28T06:17:19;15.70;99.90
9915;DHT22;4996;48.746;9.174;2022-10-28T06:19:44;15.70;99.90
9915;DHT22;4996;48.746;9.174;2022-10-28T06:22:11;15.70;99.90
9915;DHT22;4996;48.746;9.174;2022-10-28T06:24:36;15.70;99.90
9915;DHT22;4996;48.746;9.174;2022-10-28T06:27:02;15.70;99.90
9915;DHT22;4996;48.746;9.174;2022-10-28T06:29:28;15.70;99.90
9915;DHT22;4996;48.746;9.174;2022-10-28T06:31:53;15.70;99.90
9915;DHT22;4996;48.746;9.174;2022-10-28T06:34:19;15.70;99.90
9915;DHT22;4996;48.746;9.174;2022-10-28T06:36:44;15.80;99.90
9915;DHT22;4996;48.746;9.174;2022-10-28T06:39:10;15.90;99.90
9915;DHT22;4996;48.746;9.174;2022-10-28T06:41:35;16.00;99.90
9915;DHT22;4996;48.746;9.174;2022-10-28T06:44:01;16.00;99.90
9915;DHT22;4996;48.746;9.174;2022-10-28T06:46:27;16.00;99.90
9915;DHT22;4996;48.746;9.174;2022-10-28T06:48:55;16.00;99.90
9915;DHT22;4996;48.746;9.174;2022-10-28T06:51:22;16.10;99.90
9915;DHT22;4996;48.746;9.174;2022-10-28T06:53:49;16.10;99.90
9915;DHT22;4996;48.746;9.174;2022-10-28T06:56:14;16.10;99.90
9915;DHT22;4996;48.746;9.174;2022-10-28T06:58:40;16.20;99.90
9915;DHT22;4996;48.746;9.174;2022-10-28T07:01:06;16.30;99.90
9915;DHT22;4996;48.746;9.174;2022-10-28T07:03:32;16.30;99.90
9915;DHT22;4996;48.746;9.174;2022-10-28T07:05:58;16.40;99.90
9915;DHT22;4996;48.746;9.174;2022-10-28T07:08:26;16.40;99.90
9915;DHT22;4996;48.746;9.174;2022-10-28T07:10:58;16.50;99.90
9915;DHT22;4996;48.746;9.174;2022-10-28T07:13:25;16.50;99.90
9915;DHT22;4996;48.746;9.174;2022-10-28T07:15:55;16.60;99.90
9915;DHT22;4996;48.746;9.174;2022-10-28T07:18:22;16.60;99.90
9915;DHT22;4996;48.746;9.174;2022-10-28T07:20:48;16.60;99.90
9915;DHT22;4996;48.746;9.174;2022-10-28T07:23:14;16.60;99.90
9915;DHT22;4996;48.746;9.174;2022-10-28T07:25:40;16.80;99.90
9915;DHT22;4996;48.746;9.174;2022-10-28T07:28:06;16.90;99.90
9915;DHT22;4996;48.746;9.174;2022-10-28T07:30:32;16.90;99.90
9915;DHT22;4996;48.746;9.174;2022-10-28T07:32:57;16.90;99.90
9915;DHT22;4996;48.746;9.174;2022-10-28T07:35:26;17.00;99.90
9915;DHT22;4996;48.746;9.174;2022-10-28T07:37:52;17.10;99.90
9915;DHT22;4996;48.746;9.174;2022-10-28T07:40:19;17.10;99.90
9915;DHT22;4996;48.746;9.174;2022-10-28T07:42:45;17.00;99.90
9915;DHT22;4996;48.746;9.174;2022-10-28T07:45:10;17.00;99.90
9915;DHT22;4996;48.746;9.174;2022-10-28T07:47:36;17.00;99.90
9915;DHT22;4996;48.746;9.174;2022-10-28T07:50:02;17.00;99.90
9915;DHT22;4996;48.746;9.174;2022-10-28T07:52:27;17.10;99.90
9915;DHT22;4996;48.746;9.174;2022-10-28T07:54:53;17.20;99.90
9915;DHT22;4996;48.746;9.174;2022-10-28T07:57:18;17.30;99.90
9915;DHT22;4996;48.746;9.174;2022-10-28T07:59:44;17.30;99.90
9915;DHT22;4996;48.746;9.174;2022-10-28T08:02:15;17.40;99.90
9915;DHT22;4996;48.746;9.174;2022-10-28T08:04:41;17.50;99.90
9915;DHT22;4996;48.746;9.174;2022-10-28T08:07:07;17.60;99.90
9915;DHT22;4996;48.746;9.174;2022-10-28T08:09:32;17.60;99.90
9915;DHT22;4996;48.746;9.174;2022-10-28T08:11:58;17.80;99.90
9915;DHT22;4996;48.746;9.174;2022-10-28T08:14:23;17.90;99.90
9915;DHT22;4996;48.746;9.174;2022-10-28T08:16:49;18.00;99.90
9915;DHT22;4996;48.746;9.174;2022-10-28T08:19:14;18.10;99.90
9915;DHT22;4996;48.746;9.174;2022-10-28T08:21:40;18.10;99.90
9915;DHT22;4996;48.746;9.174;2022-10-28T08:24:05;18.30;99.90
9915;DHT22;4996;48.746;9.174;2022-10-28T08:26:31;18.30;99.90
9915;DHT22;4996;48.746;9.174;2022-10-28T08:28:57;18.40;99.90
9915;DHT22;4996;48.746;9.174;2022-10-28T08:31:22;18.40;99.90
9915;DHT22;4996;48.746;9.174;2022-10-28T08:33:48;18.50;99.90
9915;DHT22;4996;48.746;9.174;2022-10-28T08:36:15;18.60;99.90
9915;DHT22;4996;48.746;9.174;2022-10-28T08:38:47;18.60;99.90
9915;DHT22;4996;48.746;9.174;2022-10-28T08:41:44;18.70;99.90
9915;DHT22;4996;48.746;9.174;2022-10-28T08:47:28;19.00;99.90
9915;DHT22;4996;48.746;9.174;2022-10-28T08:50:02;19.10;99.90
9915;DHT22;4996;48.746;9.174;2022-10-28T08:52:53;19.10;99.90
9915;DHT22;4996;48.746;9.174;2022-10-28T08:57:53;19.40;99.90
9915;DHT22;4996;48.746;9.174;2022-10-28T09:02:55;19.50;99.90
9915;DHT22;4996;48.746;9.174;2022-10-28T09:05:24;19.60;99.90
9915;DHT22;4996;48.746;9.174;2022-10-28T09:07:51;19.60;99.90
9915;DHT22;4996;48.746;9.174;2022-10-28T09:10:41;19.60;99.90
9915;DHT22;4996;48.746;9.174;2022-10-28T09:18:47;20.00;99.90
9915;DHT22;4996;48.746;9.174;2022-10-28T09:23:55;20.30;99.90
9915;DHT22;4996;48.746;9.174;2022-10-28T09:27:10;20.30;99.90
9915;DHT22;4996;48.746;9.174;2022-10-28T09:29:48;20.40;99.90
9915;DHT22;4996;48.746;9.174;2022-10-28T09:33:01;20.50;99.90
9915;DHT22;4996;48.746;9.174;2022-10-28T09:35:32;20.20;99.90
9915;DHT22;4996;48.746;9.174;2022-10-28T09:40:31;20.10;99.90
9915;DHT22;4996;48.746;9.174;2022-10-28T09:45:31;20.10;99.90
9915;DHT22;4996;48.746;9.174;2022-10-28T09:48:12;20.10;99.90
9915;DHT22;4996;48.746;9.174;2022-10-28T09:50:39;20.30;99.90
9915;DHT22;4996;48.746;9.174;2022-10-28T09:53:20;20.40;99.90
9915;DHT22;4996;48.746;9.174;2022-10-28T09:55:50;20.70;99.90
9915;DHT22;4996;48.746;9.174;2022-10-28T09:58:16;20.80;99.90
9915;DHT22;4996;48.746;9.174;2022-10-28T10:00:43;21.00;99.90
9915;DHT22;4996;48.746;9.174;2022-10-28T10:03:09;21.30;99.90
9915;DHT22;4996;48.746;9.174;2022-10-28T10:05:39;21.50;99.90
9915;DHT22;4996;48.746;9.174;2022-10-28T10:08:11;21.80;99.90
9915;DHT22;4996;48.746;9.174;2022-10-28T10:10:55;22.00;99.90
9915;DHT22;4996;48.746;9.174;2022-10-28T10:13:33;22.10;99.90
9915;DHT22;4996;48.746;9.174;2022-10-28T10:16:04;22.30;99.90
9915;DHT22;4996;48.746;9.174;2022-10-28T10:18:31;22.50;99.90
9915;DHT22;4996;48.746;9.174;2022-10-28T10:21:01;22.70;99.90
9915;DHT22;4996;48.746;9.174;2022-10-28T10:23:28;22.90;99.90
9915;DHT22;4996;48.746;9.174;2022-10-28T10:25:58;22.90;99.90
9915;DHT22;4996;48.746;9.174;2022-10-28T10:28:25;22.90;99.90
9915;DHT22;4996;48.746;9.174;2022-10-28T10:30:53;22.80;99.90
9915;DHT22;4996;48.746;9.174;2022-10-28T10:33:23;22.60;99.90
9915;DHT22;4996;48.746;9.174;2022-10-28T10:38:29;22.20;99.90
9915;DHT22;4996;48.746;9.174;2022-10-28T10:40:56;22.30;99.90
9915;DHT22;4996;48.746;9.174;2022-10-28T10:43:23;22.40;99.90
9915;DHT22;4996;48.746;9.174;2022-10-28T10:46:02;22.60;99.90
9915;DHT22;4996;48.746;9.174;2022-10-28T10:48:32;22.40;99.90
9915;DHT22;4996;48.746;9.174;2022-10-28T10:51:08;22.10;99.90
9915;DHT22;4996;48.746;9.174;2022-10-28T10:53:37;22.10;99.90
9915;DHT22;4996;48.746;9.174;2022-10-28T10:56:06;22.20;99.90
9915;DHT22;4996;48.746;9.174;2022-10-28T10:58:38;22.30;99.90
9915;DHT22;4996;48.746;9.174;2022-10-28T11:01:05;22.20;99.90
9915;DHT22;4996;48.746;9.174;2022-10-28T11:04:02;22.30;99.90
9915;DHT22;4996;48.746;9.174;2022-10-28T11:06:40;22.50;99.90
9915;DHT22;4996;48.746;9.174;2022-10-28T11:09:18;22.50;99.90
9915;DHT22;4996;48.746;9.174;2022-10-28T11:11:45;22.50;99.90
9915;DHT22;4996;48.746;9.174;2022-10-28T11:17:01;22.70;99.90
9915;DHT22;4996;48.746;9.174;2022-10-28T11:19:35;22.80;99.90
9915;DHT22;4996;48.746;9.174;2022-10-28T11:27:39;23.10;99.90
9915;DHT22;4996;48.746;9.174;2022-10-28T11:30:13;23.10;99.90
9915;DHT22;4996;48.746;9.174;2022-10-28T11:41:27;23.10;99.90
9915;DHT22;4996;48.746;9.174;2022-10-28T11:43:58;23.30;99.90
9915;DHT22;4996;48.746;9.174;2022-10-28T11:46:35;23.30;99.90
9915;DHT22;4996;48.746;9.174;2022-10-28T11:52:16;22.80;99.90
9915;DHT22;4996;48.746;9.174;2022-10-28T11:57:55;22.60;99.90
9915;DHT22;4996;48.746;9.174;2022-10-28T12:00:42;22.40;99.90
9915;DHT22;4996;48.746;9.174;2022-10-28T12:05:59;22.40;99.90
9915;DHT22;4996;48.746;9.174;2022-10-28T12:14:13;22.80;99.90
9915;DHT22;4996;48.746;9.174;2022-10-28T12:16:55;22.90;99.90
9915;DHT22;4996;48.746;9.174;2022-10-28T12:19:28;23.00;99.90
9915;DHT22;4996;48.746;9.174;2022-10-28T12:22:12;23.10;99.90
9915;DHT22;4996;48.746;9.174;2022-10-28T12:24:41;23.40;99.90
9915;DHT22;4996;48.746;9.174;2022-10-28T12:27:33;23.90;99.90
9915;DHT22;4996;48.746;9.174;2022-10-28T12:30:12;24.50;99.90
9915;DHT22;4996;48.746;9.174;2022-10-28T12:32:41;25.20;99.90
9915;DHT22;4996;48.746;9.174;2022-10-28T12:35:14;25.60;99.90
9915;DHT22;4996;48.746;9.174;2022-10-28T12:37:44;25.80;99.90
9915;DHT22;4996;48.746;9.174;2022-10-28T12:40:15;25.80;99.90
9915;DHT22;4996;48.746;9.174;2022-10-28T12:43:04;26.00;99.90
9915;DHT22;4996;48.746;9.174;2022-10-28T12:45:32;26.00;99.90
9915;DHT22;4996;48.746;9.174;2022-10-28T12:48:05;26.10;99.90
9915;DHT22;4996;48.746;9.174;2022-10-28T12:51:00;26.40;99.90
9915;DHT22;4996;48.746;9.174;2022-10-28T12:53:33;26.20;99.90
9915;DHT22;4996;48.746;9.174;2022-10-28T12:56:02;26.20;99.90
9915;DHT22;4996;48.746;9.174;2022-10-28T12:58:51;26.20;99.90
9915;DHT22;4996;48.746;9.174;2022-10-28T13:01:19;26.20;99.90
9915;DHT22;4996;48.746;9.174;2022-10-28T13:03:48;26.20;99.90
9915;DHT22;4996;48.746;9.174;2022-10-28T13:09:28;25.90;99.90
9915;DHT22;4996;48.746;9.174;2022-10-28T13:25:57;25.60;99.90
9915;DHT22;4996;48.746;9.174;2022-10-28T13:28:31;25.50;99.90
9915;DHT22;4996;48.746;9.174;2022-10-28T13:31:01;25.50;99.90
9915;DHT22;4996;48.746;9.174;2022-10-28T13:33:29;25.50;99.90
9915;DHT22;4996;48.746;9.174;2022-10-28T13:36:15;25.50;99.90
9915;DHT22;4996;48.746;9.174;2022-10-28T13:38:42;25.60;99.90
9915;DHT22;4996;48.746;9.174;2022-10-28T13:41:43;25.50;99.90
9915;DHT22;4996;48.746;9.174;2022-10-28T13:47:00;25.30;99.90
9915;DHT22;4996;48.746;9.174;2022-10-28T13:49:35;25.30;99.90
9915;DHT22;4996;48.746;9.174;2022-10-28T13:52:17;25.10;99.90
9915;DHT22;4996;48.746;9.174;2022-10-28T13:59:57;25.00;99.90
9915;DHT22;4996;48.746;9.174;2022-10-28T14:04:55;24.80;99.90
9915;DHT22;4996;48.746;9.174;2022-10-28T14:07:24;25.00;99.90
9915;DHT22;4996;48.746;9.174;2022-10-28T14:10:18;24.80;99.90
9915;DHT22;4996;48.746;9.174;2022-10-28T14:12:45;24.90;99.90
9915;DHT22;4996;48.746;9.174;2022-10-28T14:15:20;24.90;99.90
9915;DHT22;4996;48.746;9.174;2022-10-28T14:20:35;25.10;99.90
9915;DHT22;4996;48.746;9.174;2022-10-28T14:50:14;24.60;99.90
9915;DHT22;4996;48.746;9.174;2022-10-28T14:52:41;24.60;99.90
9915;DHT22;4996;48.746;9.174;2022-10-28T14:55:39;24.60;99.90
9915;DHT22;4996;48.746;9.174;2022-10-28T14:58:21;24.60;99.90
9915;DHT22;4996;48.746;9.174;2022-10-28T15:03:46;24.40;99.90
9915;DHT22;4996;48.746;9.174;2022-10-28T15:06:35;24.40;99.90
9915;DHT22;4996;48.746;9.174;2022-10-28T15:11:43;24.30;99.90
9915;DHT22;4996;48.746;9.174;2022-10-28T15:14:34;24.20;99.90
9915;DHT22;4996;48.746;9.174;2022-10-28T15:17:13;24.20;99.90
9915;DHT22;4996;48.746;9.174;2022-10-28T15:19:39;24.10;99.90
9915;DHT22;4996;48.746;9.174;2022-10-28T15:22:19;24.20;99.90
9915;DHT22;4996;48.746;9.174;2022-10-28T15:27:35;23.90;99.90
9915;DHT22;4996;48.746;9.174;2022-10-28T15:30:03;23.80;99.90
9915;DHT22;4996;48.746;9.174;2022-10-28T15:32:32;23.80;99.90
9915;DHT22;4996;48.746;9.174;2022-10-28T15:34:58;23.70;99.90
9915;DHT22;4996;48.746;9.174;2022-10-28T15:37:28;23.70;99.90
9915;DHT22;4996;48.746;9.174;2022-10-28T15:40:19;23.60;99.90
9915;DHT22;4996;48.746;9.174;2022-10-28T15:43:00;23.50;99.90
9915;DHT22;4996;48.746;9.174;2022-10-28T15:45:32;23.40;99.90
9915;DHT22;4996;48.746;9.174;2022-10-28T15:47:59;23.40;99.90
9915;DHT22;4996;48.746;9.174;2022-10-28T15:50:31;23.30;99.90
9915;DHT22;4996;48.746;9.174;2022-10-28T15:55:32;23.10;99.90
9915;DHT22;4996;48.746;9.174;2022-10-28T16:00:57;23.00;99.90
9915;DHT22;4996;48.746;9.174;2022-10-28T16:03:27;23.00;99.90
9915;DHT22;4996;48.746;9.174;2022-10-28T16:06:04;22.70;99.90
9915;DHT22;4996;48.746;9.174;2022-10-28T16:08:31;22.70;99.90
9915;DHT22;4996;48.746;9.174;2022-10-28T16:10:58;22.60;99.90
9915;DHT22;4996;48.746;9.174;2022-10-28T16:15:56;22.40;99.90
9915;DHT22;4996;48.746;9.174;2022-10-28T16:18:23;22.30;99.90
9915;DHT22;4996;48.746;9.174;2022-10-28T16:20:50;22.20;99.90
9915;DHT22;4996;48.746;9.174;2022-10-28T16:23:21;22.10;99.90
9915;DHT22;4996;48.746;9.174;2022-10-28T16:25:47;22.00;99.90
9915;DHT22;4996;48.746;9.174;2022-10-28T16:28:19;22.00;99.90
9915;DHT22;4996;48.746;9.174;2022-10-28T16:30:46;21.90;99.90
9915;DHT22;4996;48.746;9.174;2022-10-28T16:33:11;21.80;99.90
9915;DHT22;4996;48.746;9.174;2022-10-28T16:35:37;21.70;99.90
9915;DHT22;4996;48.746;9.174;2022-10-28T16:38:02;21.70;99.90
9915;DHT22;4996;48.746;9.174;2022-10-28T16:40:28;21.60;99.90
9915;DHT22;4996;48.746;9.174;2022-10-28T16:42:54;21.60;99.90
9915;DHT22;4996;48.746;9.174;2022-10-28T16:45:20;21.60;99.90
9915;DHT22;4996;48.746;9.174;2022-10-28T16:47:45;21.60;99.90
9915;DHT22;4996;48.746;9.174;2022-10-28T16:50:11;21.40;99.90
9915;DHT22;4996;48.746;9.174;2022-10-28T16:52:38;21.40;99.90
9915;DHT22;4996;48.746;9.174;2022-10-28T16:55:08;21.30;99.90
9915;DHT22;4996;48.746;9.174;2022-10-28T16:57:37;21.30;99.90
9915;DHT22;4996;48.746;9.174;2022-10-28T17:00:03;21.30;99.90
9915;DHT22;4996;48.746;9.174;2022-10-28T17:02:31;21.20;99.90
9915;DHT22;4996;48.746;9.174;2022-10-28T17:04:57;21.20;99.90
9915;DHT22;4996;48.746;9.174;2022-10-28T17:07:24;21.20;99.90
9915;DHT22;4996;48.746;9.174;2022-10-28T17:09:49;21.20;99.90
9915;DHT22;4996;48.746;9.174;2022-10-28T17:12:21;21.10;99.90
9915;DHT22;4996;48.746;9.174;2022-10-28T17:14:47;21.10;99.90
9915;DHT22;4996;48.746;9.174;2022-10-28T17:17:13;21.00;99.90
9915;DHT22;4996;48.746;9.174;2022-10-28T17:19:39;21.00;99.90
9915;DHT22;4996;48.746;9.174;2022-10-28T17:22:06;20.90;99.90
9915;DHT22;4996;48.746;9.174;2022-10-28T17:24:32;20.90;99.90
9915;DHT22;4996;48.746;9.174;2022-10-28T17:26:58;20.80;99.90
9915;DHT22;4996;48.746;9.174;2022-10-28T17:29:24;20.80;99.90
9915;DHT22;4996;48.746;9.174;2022-10-28T17:31:50;20.70;99.90
9915;DHT22;4996;48.746;9.174;2022-10-28T17:34:16;20.60;99.90
9915;DHT22;4996;48.746;9.174;2022-10-28T17:36:41;20.60;99.90
9915;DHT22;4996;48.746;9.174;2022-10-28T17:39:08;20.50;99.90
9915;DHT22;4996;48.746;9.174;2022-10-28T17:41:33;20.40;99.90
9915;DHT22;4996;48.746;9.174;2022-10-28T17:43:59;20.40;99.90
9915;DHT22;4996;48.746;9.174;2022-10-28T17:46:24;20.30;99.90
9915;DHT22;4996;48.746;9.174;2022-10-28T17:48:50;20.30;99.90
9915;DHT22;4996;48.746;9.174;2022-10-28T17:51:16;20.20;99.90
9915;DHT22;4996;48.746;9.174;2022-10-28T17:53:46;20.10;99.90
9915;DHT22;4996;48.746;9.174;2022-10-28T17:56:12;20.10;99.90
9915;DHT22;4996;48.746;9.174;2022-10-28T17:58:37;20.00;99.90
9915;DHT22;4996;48.746;9.174;2022-10-28T18:01:07;19.90;99.90
9915;DHT22;4996;48.746;9.174;2022-10-28T18:03:33;19.90;99.90
9915;DHT22;4996;48.746;9.174;2022-10-28T18:06:05;19.80;99.90
9915;DHT22;4996;48.746;9.174;2022-10-28T18:08:36;19.80;99.90
9915;DHT22;4996;48.746;9.174;2022-10-28T18:11:02;19.80;99.90
9915;DHT22;4996;48.746;9.174;2022-10-28T18:13:30;19.70;99.90
9915;DHT22;4996;48.746;9.174;2022-10-28T18:16:17;19.70;99.90
9915;DHT22;4996;48.746;9.174;2022-10-28T18:18:43;19.60;99.90
9915;DHT22;4996;48.746;9.174;2022-10-28T18:21:10;19.60;99.90
9915;DHT22;4996;48.746;9.174;2022-10-28T18:23:36;19.50;99.90
9915;DHT22;4996;48.746;9.174;2022-10-28T18:26:10;19.50;99.90
9915;DHT22;4996;48.746;9.174;2022-10-28T18:28:37;19.50;99.90
9915;DHT22;4996;48.746;9.174;2022-10-28T18:31:14;19.40;99.90
9915;DHT22;4996;48.746;9.174;2022-10-28T18:33:41;19.40;99.90
9915;DHT22;4996;48.746;9.174;2022-10-28T18:36:20;19.40;99.90
9915;DHT22;4996;48.746;9.174;2022-10-28T18:38:46;19.30;99.90
9915;DHT22;4996;48.746;9.174;2022-10-28T18:41:18;19.30;99.90
9915;DHT22;4996;48.746;9.174;2022-10-28T18:43:44;19.30;99.90
9915;DHT22;4996;48.746;9.174;2022-10-28T18:46:11;19.20;99.90
9915;DHT22;4996;48.746;9.174;2022-10-28T18:48:37;19.20;99.90
9915;DHT22;4996;48.746;9.174;2022-10-28T18:51:06;19.10;99.90
9915;DHT22;4996;48.746;9.174;2022-10-28T18:53:40;19.10;99.90
9915;DHT22;4996;48.746;9.174;2022-10-28T18:56:09;19.10;99.90
9915;DHT22;4996;48.746;9.174;2022-10-28T18:58:35;19.10;99.90
9915;DHT22;4996;48.746;9.174;2022-10-28T19:01:15;19.00;99.90
9915;DHT22;4996;48.746;9.174;2022-10-28T19:03:41;19.00;99.90